Time;durP1;ratioP1;P1;durP2;ratioP2;P2;SDS_P1;SDS_P2;PMS_P1;PMS_P2;Temp;Humidity;BMP_temperature;BMP_pressure;BME280_temperature;BME280_humidity;BME280_pressure;Samples;Min_cycle;Max_cycle;Signal;HPM_P1;HPM_P2
2022/11/23 00:01:20;;;;;;;7.55;4.88;;;10.00;99.90;;;;;;5134716;27;20191;-54
2022/11/23 00:03:48;;;;;;;9.90;5.45;;;10.00;99.90;;;;;;5134753;27;20187;-53
2022/11/23 00:06:14;;;;;;;11.30;5.63;;;10.10;99.90;;;;;;5134563;27;20657;-54
2022/11/23 00:08:40;;;;;;;8.50;4.97;;;10.00;99.90;;;;;;5134572;27;20297;-53
2022/11/23 00:11:06;;;;;;;11.80;5.38;;;10.10;99.90;;;;;;5134751;27;20656;-52
2022/11/23 00:13:33;;;;;;;10.50;4.90;;;10.10;99.90;;;;;;5134993;27;20180;-53
2022/11/23 00:16:00;;;;;;;8.27;4.68;;;10.00;99.90;;;;;;5116660;27;20518;-54
2022/11/23 00:18:25;;;;;;;9.75;4.40;;;10.00;99.90;;;;;;5134531;27;20524;-53
2022/11/23 00:20:51;;;;;;;9.00;4.53;;;9.90;99.90;;;;;;5134314;27;20196;-54
2022/11/23 00:23:17;;;;;;;8.00;3.90;;;9.90;99.90;;;;;;5134603;27;20211;-54
2022/11/23 00:25:45;;;;;;;9.60;3.67;;;9.90;99.90;;;;;;5134413;27;20168;-53
2022/11/23 00:28:11;;;;;;;9.20;3.65;;;9.90;99.90;;;;;;5116007;27;20178;-51
2022/11/23 00:30:37;;;;;;;9.20;3.83;;;10.00;99.90;;;;;;5134236;27;20230;-53
2022/11/23 00:33:03;;;;;;;8.55;3.67;;;10.00;99.90;;;;;;5134317;27;20227;-52
2022/11/23 00:35:28;;;;;;;7.45;3.67;;;10.00;99.90;;;;;;5134223;27;20199;-53
2022/11/23 00:37:54;;;;;;;9.20;3.85;;;10.00;99.90;;;;;;5115950;28;20257;-54
2022/11/23 00:40:19;;;;;;;10.00;3.88;;;10.00;99.90;;;;;;5134174;27;20188;-53
2022/11/23 00:42:45;;;;;;;11.45;4.07;;;10.00;99.90;;;;;;5134318;27;20179;-53
2022/11/23 00:45:11;;;;;;;9.02;3.65;;;10.00;99.90;;;;;;5115888;28;20176;-52
2022/11/23 00:47:36;;;;;;;9.00;3.92;;;10.00;99.90;;;;;;5115975;27;20196;-53
2022/11/23 00:50:02;;;;;;;7.30;3.33;;;10.00;99.90;;;;;;5122761;27;20181;-53
2022/11/23 00:52:28;;;;;;;9.95;3.63;;;10.00;99.90;;;;;;5140831;27;20202;-53
2022/11/23 00:54:54;;;;;;;8.30;3.47;;;10.00;99.90;;;;;;5141195;27;20173;-53
2022/11/23 00:57:19;;;;;;;12.75;3.50;;;10.10;99.90;;;;;;5141053;27;20176;-53
2022/11/23 00:59:45;;;;;;;13.18;3.60;;;10.10;99.90;;;;;;5140934;27;20199;-53
2022/11/23 01:02:10;;;;;;;9.48;3.45;;;10.10;99.90;;;;;;5141093;27;20195;-53
2022/11/23 01:04:38;;;;;;;6.22;2.85;;;10.10;99.90;;;;;;5140999;27;20532;-54
2022/11/23 01:07:04;;;;;;;10.65;3.38;;;10.20;99.90;;;;;;5122503;27;20279;-54
2022/11/23 01:09:29;;;;;;;12.13;3.65;;;10.30;99.90;;;;;;5141071;27;20264;-53
2022/11/23 01:11:55;;;;;;;9.70;3.72;;;10.20;99.90;;;;;;5140989;27;20210;-54
2022/11/23 01:14:22;;;;;;;11.63;3.80;;;10.10;99.90;;;;;;5122545;27;20179;-54
2022/11/23 01:16:48;;;;;;;8.20;3.60;;;10.10;99.90;;;;;;5141121;27;20367;-52
2022/11/23 01:19:16;;;;;;;11.02;4.13;;;10.10;99.90;;;;;;5140742;27;20173;-51
2022/11/23 01:21:43;;;;;;;11.02;3.95;;;10.10;99.90;;;;;;5140625;27;20260;-53
2022/11/23 01:24:13;;;;;;;10.48;3.95;;;10.10;99.90;;;;;;5122790;27;20633;-54
2022/11/23 01:26:39;;;;;;;11.70;3.75;;;10.10;99.90;;;;;;5140675;27;20204;-54
2022/11/23 01:29:05;;;;;;;8.52;4.03;;;10.10;99.90;;;;;;5122447;27;20204;-53
2022/11/23 01:31:31;;;;;;;11.23;3.72;;;10.00;99.90;;;;;;5140637;27;20207;-54
2022/11/23 01:33:59;;;;;;;10.57;4.07;;;10.00;99.90;;;;;;5122372;27;20169;-54
2022/11/23 01:36:27;;;;;;;13.75;4.53;;;9.90;99.90;;;;;;5140743;27;20183;-52
2022/11/23 01:38:54;;;;;;;10.68;3.55;;;9.90;99.90;;;;;;5140742;27;20220;-54
2022/11/23 01:41:23;;;;;;;10.85;4.00;;;9.80;99.90;;;;;;5140281;27;20200;-52
2022/11/23 01:43:49;;;;;;;9.98;3.85;;;9.90;99.90;;;;;;5140520;27;20168;-54
2022/11/23 01:46:15;;;;;;;9.48;3.90;;;10.00;99.90;;;;;;5140304;27;20203;-53
2022/11/23 01:49:04;;;;;;;12.60;4.22;;;10.00;99.90;;;;;;5121916;27;20318;-53
2022/11/23 01:51:33;;;;;;;10.82;3.50;;;10.00;99.90;;;;;;5140126;27;20185;-53
2022/11/23 01:54:21;;;;;;;12.32;3.75;;;10.00;99.90;;;;;;5140462;27;20179;-54
2022/11/23 01:56:53;;;;;;;12.27;4.03;;;10.00;99.90;;;;;;5140404;27;20176;-51
2022/11/23 01:59:20;;;;;;;9.05;3.72;;;10.10;99.90;;;;;;5139628;27;20156;-53
2022/11/23 02:01:46;;;;;;;10.65;3.92;;;10.10;99.90;;;;;;5136633;27;20180;-53
2022/11/23 02:04:18;;;;;;;11.35;3.85;;;10.00;99.90;;;;;;5118845;27;20171;-51
2022/11/23 02:06:46;;;;;;;11.43;4.03;;;10.00;99.90;;;;;;5137206;27;20192;-53
2022/11/23 02:09:13;;;;;;;12.25;4.57;;;10.10;99.90;;;;;;5136998;27;20256;-51
2022/11/23 02:11:38;;;;;;;11.50;4.30;;;10.00;99.90;;;;;;5136829;27;20203;-54
2022/11/23 02:14:04;;;;;;;15.35;4.40;;;9.90;99.90;;;;;;5118569;27;20656;-53
2022/11/23 02:16:30;;;;;;;12.05;4.25;;;10.10;99.90;;;;;;5137026;27;20270;-52
2022/11/23 02:18:55;;;;;;;14.13;4.35;;;10.00;99.90;;;;;;5136785;27;20256;-52
2022/11/23 02:21:22;;;;;;;11.60;3.72;;;10.00;99.90;;;;;;5136717;27;20553;-54
2022/11/23 02:24:11;;;;;;;8.00;3.53;;;10.00;99.90;;;;;;5118390;27;20176;-53
2022/11/23 02:26:37;;;;;;;12.23;3.90;;;9.90;99.90;;;;;;5118381;27;20249;-51
2022/11/23 02:29:17;;;;;;;9.98;3.67;;;10.00;99.90;;;;;;5118768;27;20173;-54
2022/11/23 02:31:42;;;;;;;10.80;3.50;;;10.00;99.90;;;;;;5136596;27;20203;-54
2022/11/23 02:34:08;;;;;;;11.15;3.65;;;10.00;99.90;;;;;;5118243;27;20204;-52
2022/11/23 02:36:56;;;;;;;8.55;3.22;;;10.00;99.90;;;;;;5136597;27;20526;-53
2022/11/23 02:39:36;;;;;;;9.55;2.95;;;10.00;99.90;;;;;;5136599;27;20156;-54
2022/11/23 02:42:02;;;;;;;10.80;4.00;;;10.10;99.90;;;;;;5136419;27;20184;-54
2022/11/23 02:44:32;;;;;;;10.93;3.58;;;10.00;99.90;;;;;;5117985;27;20188;-53
2022/11/23 02:46:58;;;;;;;10.90;3.40;;;9.90;99.90;;;;;;5136115;27;20506;-53
2022/11/23 02:49:24;;;;;;;9.85;3.17;;;9.90;99.90;;;;;;5136293;27;20247;-53
2022/11/23 02:51:51;;;;;;;10.32;3.75;;;10.00;99.90;;;;;;5136311;27;20173;-53
2022/11/23 02:54:16;;;;;;;7.90;2.42;;;10.00;99.90;;;;;;5117613;27;20216;-54
2022/11/23 02:56:42;;;;;;;9.55;3.63;;;10.10;99.90;;;;;;5136072;27;20177;-53
2022/11/23 02:59:08;;;;;;;12.40;3.67;;;10.00;99.90;;;;;;5136100;27;20528;-52
2022/11/23 03:01:34;;;;;;;10.52;3.15;;;10.00;99.90;;;;;;5135885;27;20629;-54
2022/11/23 03:03:59;;;;;;;10.23;3.33;;;9.80;99.90;;;;;;5117710;27;20165;-52
2022/11/23 03:06:25;;;;;;;9.13;3.08;;;9.80;99.90;;;;;;5135954;27;20200;-54
2022/11/23 03:08:50;;;;;;;8.93;2.97;;;9.80;99.90;;;;;;5135935;27;20536;-51
2022/11/23 03:11:16;;;;;;;10.68;3.17;;;9.80;99.90;;;;;;5134998;27;20180;-53
2022/11/23 03:13:42;;;;;;;10.43;3.00;;;9.70;99.90;;;;;;5135301;27;20176;-53
2022/11/23 03:16:08;;;;;;;10.13;3.58;;;9.70;99.90;;;;;;5135637;27;20637;-53
2022/11/23 03:18:34;;;;;;;9.48;3.17;;;9.70;99.90;;;;;;5135921;27;20225;-53
2022/11/23 03:21:04;;;;;;;10.43;3.00;;;9.70;99.90;;;;;;5135789;27;20181;-53
2022/11/23 03:23:30;;;;;;;12.30;3.08;;;9.70;99.90;;;;;;5135640;27;20207;-53
2022/11/23 03:25:57;;;;;;;12.50;3.72;;;9.60;99.90;;;;;;5135346;27;20220;-54
2022/11/23 03:28:23;;;;;;;9.23;3.03;;;9.60;99.90;;;;;;5135414;27;20187;-54
2022/11/23 03:30:49;;;;;;;10.32;2.60;;;9.50;99.90;;;;;;5135603;27;20180;-52
2022/11/23 03:33:14;;;;;;;10.52;3.30;;;9.60;99.90;;;;;;5135455;27;20200;-54
2022/11/23 03:35:40;;;;;;;12.32;3.58;;;9.60;99.90;;;;;;5116789;27;20173;-55
2022/11/23 03:38:06;;;;;;;10.57;3.28;;;9.80;99.90;;;;;;5099996;27;20268;-54
2022/11/23 03:40:31;;;;;;;9.38;3.17;;;9.80;99.90;;;;;;5116727;27;20213;-51
2022/11/23 03:42:57;;;;;;;14.02;3.28;;;9.60;99.90;;;;;;5116698;27;20173;-53
2022/11/23 03:45:22;;;;;;;7.97;3.03;;;9.70;99.90;;;;;;5135024;27;20169;-53
2022/11/23 03:47:48;;;;;;;11.90;2.85;;;9.70;99.90;;;;;;5135091;27;20682;-53
2022/11/23 03:50:13;;;;;;;10.57;3.10;;;9.70;99.90;;;;;;5135046;27;20183;-54
2022/11/23 03:52:39;;;;;;;14.48;3.25;;;9.70;99.90;;;;;;5135024;27;20168;-53
2022/11/23 03:55:05;;;;;;;12.40;3.45;;;9.80;99.90;;;;;;5134992;27;20179;-54
2022/11/23 03:57:31;;;;;;;12.75;3.65;;;9.90;99.90;;;;;;5134865;27;20582;-53
2022/11/23 03:59:56;;;;;;;11.23;3.13;;;9.80;99.90;;;;;;5134733;27;20210;-52
2022/11/23 04:02:22;;;;;;;9.93;3.00;;;9.80;99.90;;;;;;5134942;27;20633;-51
2022/11/23 04:04:48;;;;;;;10.48;3.60;;;9.80;99.90;;;;;;5134861;27;20177;-52
2022/11/23 04:07:13;;;;;;;10.27;2.97;;;9.80;99.90;;;;;;5134661;27;20216;-54
2022/11/23 04:09:39;;;;;;;8.95;3.63;;;9.80;99.90;;;;;;5116392;27;20177;-54
2022/11/23 04:12:05;;;;;;;11.65;3.20;;;9.70;99.90;;;;;;5134545;27;20211;-53
2022/11/23 04:14:30;;;;;;;12.75;3.05;;;9.80;99.90;;;;;;5116394;27;20225;-54
2022/11/23 04:16:56;;;;;;;10.27;3.40;;;9.80;99.90;;;;;;5134692;27;20503;-51
2022/11/23 04:19:22;;;;;;;10.52;3.60;;;9.70;99.90;;;;;;5134480;27;20217;-54
2022/11/23 04:21:47;;;;;;;12.93;3.63;;;9.80;99.90;;;;;;5134564;27;20183;-53
2022/11/23 04:24:13;;;;;;;11.52;3.33;;;10.00;99.90;;;;;;5134103;27;20511;-54
2022/11/23 04:26:39;;;;;;;12.00;3.17;;;9.90;99.90;;;;;;5134295;27;20210;-53
2022/11/23 04:29:05;;;;;;;15.18;3.53;;;9.80;99.90;;;;;;5134198;27;20211;-54
2022/11/23 04:31:31;;;;;;;10.70;3.42;;;9.80;99.90;;;;;;5134454;27;20208;-54
2022/11/23 04:33:57;;;;;;;11.85;3.50;;;9.70;99.90;;;;;;5099411;27;20173;-53
2022/11/23 04:36:23;;;;;;;11.95;3.83;;;9.70;99.90;;;;;;5134240;27;20589;-52
2022/11/23 04:38:49;;;;;;;11.18;3.33;;;9.80;99.90;;;;;;5134263;27;20198;-54
2022/11/23 04:41:15;;;;;;;11.43;3.95;;;9.80;99.90;;;;;;5134417;27;20176;-53
2022/11/23 04:43:40;;;;;;;15.93;3.80;;;9.90;99.90;;;;;;5134143;27;20175;-53
2022/11/23 04:46:06;;;;;;;13.02;4.32;;;9.80;99.90;;;;;;5134305;27;20531;-54
2022/11/23 04:48:32;;;;;;;16.30;4.40;;;9.70;99.90;;;;;;5116036;28;20246;-52
2022/11/23 04:50:58;;;;;;;14.77;4.55;;;9.80;99.90;;;;;;5134465;28;20181;-53
2022/11/23 04:53:23;;;;;;;10.95;3.78;;;9.70;99.90;;;;;;5133917;28;20185;-51
2022/11/23 04:55:49;;;;;;;10.98;3.63;;;9.70;99.90;;;;;;5134060;28;20533;-53
2022/11/23 04:58:15;;;;;;;12.63;3.60;;;9.60;99.90;;;;;;5115704;28;20165;-53
2022/11/23 05:00:40;;;;;;;11.57;3.90;;;9.50;99.90;;;;;;5115887;28;20203;-52
2022/11/23 05:03:06;;;;;;;14.80;3.58;;;9.50;99.90;;;;;;5134531;28;20176;-51
2022/11/23 05:05:32;;;;;;;15.63;4.00;;;9.50;99.90;;;;;;5134169;28;20172;-53
2022/11/23 05:07:58;;;;;;;12.93;4.00;;;9.50;99.90;;;;;;5134135;28;20204;-52
2022/11/23 05:10:24;;;;;;;14.10;3.95;;;9.50;99.90;;;;;;5134089;28;20614;-54
2022/11/23 05:12:49;;;;;;;13.82;3.55;;;9.60;99.90;;;;;;5134115;28;20180;-53
2022/11/23 05:15:15;;;;;;;14.88;4.43;;;9.60;99.90;;;;;;5134043;28;20173;-53
2022/11/23 05:17:41;;;;;;;16.27;4.63;;;9.50;99.90;;;;;;5134033;28;20169;-53
2022/11/23 05:20:07;;;;;;;19.50;4.25;;;9.50;99.90;;;;;;5133994;28;20248;-53
2022/11/23 05:22:33;;;;;;;13.95;3.83;;;9.60;99.90;;;;;;5133803;28;20200;-54
2022/11/23 05:24:59;;;;;;;14.20;3.80;;;9.50;99.90;;;;;;5133873;28;20676;-53
2022/11/23 05:27:24;;;;;;;16.77;4.28;;;9.50;99.90;;;;;;5115224;28;20216;-53
2022/11/23 05:29:50;;;;;;;16.20;4.13;;;9.50;99.90;;;;;;5133960;28;20179;-52
2022/11/23 05:32:15;;;;;;;15.90;4.20;;;9.50;99.90;;;;;;5115512;28;20267;-52
2022/11/23 05:34:41;;;;;;;13.32;3.85;;;9.50;99.90;;;;;;5133952;27;20173;-54
2022/11/23 05:37:07;;;;;;;15.75;4.03;;;9.40;99.90;;;;;;5138095;27;20254;-53
2022/11/23 05:39:32;;;;;;;16.15;4.25;;;9.40;99.90;;;;;;5137491;27;20660;-54
2022/11/23 05:41:58;;;;;;;16.42;4.10;;;9.30;99.90;;;;;;5137370;27;20279;-53
2022/11/23 05:44:24;;;;;;;14.25;4.20;;;9.50;99.90;;;;;;5137380;27;20176;-54
2022/11/23 05:46:50;;;;;;;13.32;3.97;;;9.40;99.90;;;;;;5137450;27;20211;-54
2022/11/23 05:49:15;;;;;;;15.93;4.45;;;9.40;99.90;;;;;;5137288;27;20549;-52
2022/11/23 05:51:41;;;;;;;17.65;4.15;;;9.30;99.90;;;;;;5137251;27;20169;-51
2022/11/23 05:54:07;;;;;;;15.02;3.08;;;9.40;99.90;;;;;;5137332;27;20184;-51
2022/11/23 05:56:32;;;;;;;14.82;4.30;;;9.40;99.90;;;;;;5137151;27;20173;-52
2022/11/23 05:58:58;;;;;;;15.30;3.92;;;9.30;99.90;;;;;;5137336;27;20168;-53
2022/11/23 06:01:23;;;;;;;13.80;3.85;;;9.30;99.90;;;;;;5137290;27;20180;-51
2022/11/23 06:03:52;;;;;;;20.17;4.57;;;9.20;99.90;;;;;;5118747;27;20691;-50
2022/11/23 06:06:18;;;;;;;12.27;3.33;;;9.20;99.90;;;;;;5136999;27;20299;-52
2022/11/23 06:08:43;;;;;;;13.57;3.28;;;9.10;99.90;;;;;;5118494;27;20276;-50
2022/11/23 06:11:09;;;;;;;12.52;3.15;;;9.00;99.90;;;;;;5117390;27;20259;-53
2022/11/23 06:13:35;;;;;;;16.27;3.53;;;9.00;99.90;;;;;;5137031;27;20180;-50
2022/11/23 06:16:01;;;;;;;11.85;3.08;;;8.90;99.90;;;;;;5118661;27;20177;-50
2022/11/23 06:18:26;;;;;;;10.27;3.20;;;8.60;99.90;;;;;;5136886;27;20173;-50
2022/11/23 06:20:52;;;;;;;14.00;2.78;;;8.70;99.90;;;;;;5136862;27;20195;-49
2022/11/23 06:23:18;;;;;;;14.23;3.35;;;8.50;99.90;;;;;;5118460;27;20176;-53
2022/11/23 06:25:43;;;;;;;13.77;3.53;;;8.50;99.90;;;;;;5136556;27;20176;-52
2022/11/23 06:28:09;;;;;;;13.82;3.20;;;8.40;99.90;;;;;;5117695;27;20652;-54
2022/11/23 06:30:35;;;;;;;16.73;3.30;;;8.40;99.90;;;;;;5117282;27;20180;-52
2022/11/23 06:33:04;;;;;;;13.10;3.08;;;8.40;99.90;;;;;;5136601;27;20525;-49
2022/11/23 06:35:30;;;;;;;15.20;3.05;;;8.40;99.90;;;;;;5136461;27;20177;-50
2022/11/23 06:37:55;;;;;;;18.35;3.55;;;8.30;99.90;;;;;;5136336;27;20184;-50
2022/11/23 06:40:21;;;;;;;15.15;3.83;;;8.10;99.90;;;;;;5136548;27;20248;-52
2022/11/23 06:42:47;;;;;;;14.13;3.25;;;8.10;99.90;;;;;;5136780;27;20208;-50
2022/11/23 06:45:13;;;;;;;12.40;3.00;;;8.00;99.90;;;;;;5136479;27;20165;-50
2022/11/23 06:47:39;;;;;;;15.45;3.78;;;8.10;99.90;;;;;;5135911;27;20217;-50
2022/11/23 06:50:05;;;;;;;12.90;3.10;;;8.10;99.90;;;;;;5136234;27;20184;-51
2022/11/23 06:52:31;;;;;;;12.57;3.67;;;8.00;99.90;;;;;;5136150;27;20633;-53
2022/11/23 06:54:57;;;;;;;13.70;3.25;;;7.90;99.90;;;;;;5136056;27;20184;-50
2022/11/23 06:57:22;;;;;;;13.70;3.35;;;7.90;99.90;;;;;;5136296;27;20176;-53
2022/11/23 06:59:48;;;;;;;15.63;3.40;;;7.90;99.90;;;;;;5136332;27;20263;-51
2022/11/23 07:02:14;;;;;;;13.55;2.88;;;7.80;99.90;;;;;;5136010;27;20173;-52
2022/11/23 07:04:39;;;;;;;11.75;3.08;;;7.80;99.90;;;;;;5117763;27;20697;-50
2022/11/23 07:07:08;;;;;;;14.63;2.90;;;7.90;99.90;;;;;;5135734;27;20257;-53
2022/11/23 07:09:34;;;;;;;15.32;3.08;;;7.80;99.90;;;;;;5135705;27;20574;-53
2022/11/23 07:12:00;;;;;;;11.98;2.90;;;7.70;99.90;;;;;;5136001;27;20271;-51
2022/11/23 07:14:26;;;;;;;16.00;3.20;;;7.70;99.90;;;;;;5135717;27;20656;-52
2022/11/23 07:16:51;;;;;;;11.93;3.22;;;7.60;99.90;;;;;;5135753;27;20177;-51
2022/11/23 07:19:17;;;;;;;14.38;3.33;;;7.60;99.90;;;;;;5135649;27;20186;-50
2022/11/23 07:21:44;;;;;;;18.98;3.40;;;7.60;99.90;;;;;;5135533;27;20176;-52
2022/11/23 07:24:10;;;;;;;15.80;3.25;;;7.60;99.90;;;;;;5135448;27;20545;-51
2022/11/23 07:26:35;;;;;;;10.82;3.00;;;7.60;99.90;;;;;;5135764;27;20203;-50
2022/11/23 07:29:01;;;;;;;10.77;2.78;;;7.60;99.90;;;;;;5117315;27;20177;-53
2022/11/23 07:31:26;;;;;;;10.05;2.92;;;7.60;99.90;;;;;;5135300;27;20576;-49
2022/11/23 07:33:52;;;;;;;15.82;4.13;;;7.60;99.90;;;;;;5099876;27;20210;-52
2022/11/23 07:36:18;;;;;;;22.60;3.70;;;7.60;99.90;;;;;;5116966;27;20215;-51
2022/11/23 07:38:44;;;;;;;13.63;3.17;;;7.50;99.90;;;;;;5135095;27;20609;-50
2022/11/23 07:41:09;;;;;;;18.52;3.03;;;7.60;99.90;;;;;;5135112;27;20195;-52
2022/11/23 07:43:35;;;;;;;16.38;3.45;;;7.60;99.90;;;;;;5117070;27;20179;-50
2022/11/23 07:46:01;;;;;;;12.68;3.38;;;7.60;99.90;;;;;;5135027;27;20314;-51
2022/11/23 07:48:26;;;;;;;11.38;2.75;;;7.70;99.90;;;;;;5135336;27;20179;-50
2022/11/23 07:50:53;;;;;;;10.23;3.25;;;7.80;99.90;;;;;;5135421;27;20588;-52
2022/11/23 07:53:19;;;;;;;13.40;3.22;;;7.60;99.90;;;;;;5135153;27;20255;-53
2022/11/23 07:55:44;;;;;;;16.15;3.03;;;7.70;99.90;;;;;;5135055;27;20165;-51
2022/11/23 07:58:11;;;;;;;13.80;2.83;;;7.60;99.90;;;;;;5134615;27;20693;-50
2022/11/23 08:00:37;;;;;;;14.75;3.40;;;7.70;99.90;;;;;;5134831;27;20176;-52
2022/11/23 08:03:03;;;;;;;13.55;3.30;;;7.70;99.90;;;;;;5134697;27;20651;-52
2022/11/23 08:05:34;;;;;;;11.32;3.03;;;7.70;99.90;;;;;;5116371;27;20186;-53
2022/11/23 08:08:01;;;;;;;9.88;3.17;;;7.70;99.90;;;;;;5134729;27;20215;-52
2022/11/23 08:10:28;;;;;;;13.13;3.50;;;7.70;99.90;;;;;;5116400;27;20225;-53
2022/11/23 08:13:03;;;;;;;13.77;3.42;;;7.70;99.90;;;;;;5134720;27;20203;-51
2022/11/23 08:15:28;;;;;;;11.93;3.47;;;7.70;99.90;;;;;;5134624;27;20198;-53
2022/11/23 08:17:59;;;;;;;12.80;3.92;;;7.80;99.90;;;;;;5134474;27;20181;-53
2022/11/23 08:20:25;;;;;;;13.77;3.42;;;7.80;99.90;;;;;;5116513;27;20183;-50
2022/11/23 08:22:51;;;;;;;14.65;3.88;;;7.80;99.90;;;;;;5134606;27;20172;-52
2022/11/23 08:25:17;;;;;;;11.52;3.55;;;8.00;99.90;;;;;;5134747;27;20228;-49
2022/11/23 08:27:43;;;;;;;11.85;3.45;;;8.00;99.90;;;;;;5134403;27;20648;-50
2022/11/23 08:30:09;;;;;;;13.38;3.70;;;8.00;99.90;;;;;;5134325;27;20198;-50
2022/11/23 08:32:34;;;;;;;12.02;3.22;;;8.10;99.90;;;;;;5134291;27;20624;-50
2022/11/23 08:35:00;;;;;;;9.07;3.00;;;8.10;99.90;;;;;;5134486;27;20168;-52
2022/11/23 08:37:26;;;;;;;9.35;3.15;;;8.20;99.90;;;;;;5134398;27;20548;-53
2022/11/23 08:39:51;;;;;;;13.30;4.15;;;8.30;99.90;;;;;;5134181;27;20237;-52
2022/11/23 08:42:17;;;;;;;10.70;4.10;;;8.30;99.90;;;;;;5134354;27;20306;-50
2022/11/23 08:44:43;;;;;;;8.65;3.03;;;8.40;99.90;;;;;;5134340;27;20661;-49
2022/11/23 08:47:08;;;;;;;13.23;3.10;;;8.40;99.90;;;;;;5134086;27;20688;-51
2022/11/23 08:49:34;;;;;;;8.10;2.97;;;8.30;99.90;;;;;;5134326;28;20176;-52
2022/11/23 08:51:59;;;;;;;10.82;3.45;;;8.50;99.90;;;;;;5134061;28;20194;-52
2022/11/23 08:54:25;;;;;;;11.93;4.05;;;8.60;99.90;;;;;;5134117;28;20176;-50
2022/11/23 08:56:51;;;;;;;13.32;3.83;;;8.60;99.90;;;;;;5134174;28;20256;-53
2022/11/23 08:59:17;;;;;;;11.45;3.47;;;8.50;99.90;;;;;;5133992;28;20168;-50
2022/11/23 09:01:44;;;;;;;11.88;3.60;;;8.50;99.90;;;;;;5115529;28;20184;-51
2022/11/23 09:04:10;;;;;;;16.08;4.25;;;8.50;99.90;;;;;;5133935;28;20196;-51
2022/11/23 09:06:35;;;;;;;9.80;3.95;;;8.60;99.90;;;;;;5115867;28;20612;-53
2022/11/23 09:09:01;;;;;;;15.68;3.38;;;8.70;99.90;;;;;;5116311;27;20174;-50
2022/11/23 09:11:27;;;;;;;13.93;3.08;;;8.80;99.90;;;;;;5138077;27;20199;-51
2022/11/23 09:13:53;;;;;;;13.18;4.68;;;8.90;99.90;;;;;;5138090;27;20211;-50
2022/11/23 09:16:19;;;;;;;10.27;3.10;;;8.90;99.90;;;;;;5137879;27;20192;-52
2022/11/23 09:18:45;;;;;;;12.98;3.90;;;9.00;99.90;;;;;;5137772;27;20755;-50
2022/11/23 09:21:11;;;;;;;11.93;3.50;;;9.00;99.90;;;;;;5137879;27;20169;-53
2022/11/23 09:23:37;;;;;;;9.43;3.05;;;9.00;99.90;;;;;;5119609;27;20173;-53
2022/11/23 09:26:03;;;;;;;12.73;3.55;;;9.10;99.90;;;;;;5137868;27;20305;-50
2022/11/23 09:28:30;;;;;;;17.73;4.15;;;9.10;99.90;;;;;;5137844;27;20184;-53
2022/11/23 09:30:56;;;;;;;11.55;3.38;;;9.00;99.90;;;;;;5137569;27;20213;-53
2022/11/23 09:33:23;;;;;;;10.60;3.38;;;9.00;99.90;;;;;;5137845;27;20172;-51
2022/11/23 09:36:00;;;;;;;10.55;3.70;;;9.10;99.90;;;;;;5137804;27;20175;-54
2022/11/23 09:38:27;;;;;;;8.68;3.33;;;9.00;99.90;;;;;;5137812;27;20196;-51
2022/11/23 09:41:05;;;;;;;12.15;3.35;;;9.10;99.90;;;;;;5137702;27;20586;-51
2022/11/23 09:43:49;;;;;;;9.32;3.35;;;9.10;99.90;;;;;;5137413;27;20176;-53
2022/11/23 09:46:37;;;;;;;9.82;3.80;;;9.30;99.90;;;;;;5137611;27;20192;-51
2022/11/23 09:49:09;;;;;;;12.05;3.50;;;9.50;99.90;;;;;;5137396;27;20177;-51
2022/11/23 09:51:37;;;;;;;7.78;3.03;;;9.70;99.90;;;;;;5137314;27;20297;-52
2022/11/23 09:54:10;;;;;;;9.55;3.45;;;9.70;99.90;;;;;;5137060;27;20173;-53
2022/11/23 09:56:40;;;;;;;9.43;3.20;;;9.80;99.90;;;;;;5137367;27;20169;-52
2022/11/23 09:59:33;;;;;;;9.25;3.78;;;9.90;99.90;;;;;;5137378;27;20191;-53
2022/11/23 10:02:00;;;;;;;10.18;3.63;;;10.00;99.90;;;;;;5137191;27;20172;-53
2022/11/23 10:04:32;;;;;;;8.60;3.38;;;10.10;99.90;;;;;;5101528;27;20169;-53
2022/11/23 10:07:16;;;;;;;7.35;4.00;;;10.10;99.90;;;;;;5137173;27;20208;-52
2022/11/23 10:09:59;;;;;;;5.57;3.15;;;10.10;99.90;;;;;;5118683;27;20181;-50
2022/11/23 10:12:40;;;;;;;9.05;3.67;;;10.00;99.90;;;;;;5137054;27;20503;-52
2022/11/23 10:15:36;;;;;;;8.00;3.13;;;9.90;99.90;;;;;;5137199;27;20517;-53
2022/11/23 10:18:17;;;;;;;7.07;2.97;;;9.90;99.90;;;;;;5136990;27;20214;-60
2022/11/23 10:21:01;;;;;;;8.10;3.35;;;9.90;99.90;;;;;;5136135;27;20165;-60
2022/11/23 10:23:38;;;;;;;6.53;2.97;;;10.10;99.90;;;;;;5137123;27;20181;-60
2022/11/23 10:26:07;;;;;;;10.27;3.78;;;10.10;99.90;;;;;;5136691;27;20506;-60
2022/11/23 10:28:33;;;;;;;9.40;3.83;;;10.00;99.90;;;;;;5136584;27;20171;-60
2022/11/23 10:31:21;;;;;;;8.90;3.55;;;10.00;99.90;;;;;;5136675;27;20260;-60
2022/11/23 10:34:06;;;;;;;9.50;3.80;;;9.80;99.90;;;;;;5136791;27;20213;-60
2022/11/23 10:36:35;;;;;;;11.73;3.50;;;10.00;99.90;;;;;;5136804;27;20213;-60
2022/11/23 10:39:04;;;;;;;7.78;3.38;;;10.20;99.90;;;;;;5136642;27;20176;-60
2022/11/23 10:41:30;;;;;;;7.00;3.20;;;10.20;99.90;;;;;;5136261;27;20212;-60
2022/11/23 10:44:16;;;;;;;8.13;2.75;;;10.20;99.90;;;;;;5118020;27;20203;-60
2022/11/23 10:46:43;;;;;;;6.65;2.88;;;10.20;99.90;;;;;;5136716;27;20223;-60
2022/11/23 10:49:28;;;;;;;6.75;2.72;;;10.20;99.90;;;;;;5118030;27;20184;-60
2022/11/23 10:52:05;;;;;;;6.10;2.70;;;10.20;99.90;;;;;;5117869;27;20196;-60
2022/11/23 10:54:37;;;;;;;6.93;2.40;;;10.20;99.90;;;;;;5136081;27;20187;-60
2022/11/23 10:57:41;;;;;;;7.60;2.88;;;10.20;99.90;;;;;;5136344;27;20321;-60
2022/11/23 11:00:11;;;;;;;8.95;3.40;;;10.40;99.90;;;;;;5136147;27;20527;-60
2022/11/23 11:02:48;;;;;;;7.40;2.78;;;10.30;99.90;;;;;;5135935;27;20161;-59
2022/11/23 11:05:26;;;;;;;8.05;3.08;;;10.40;99.90;;;;;;5136125;27;20679;-60
2022/11/23 11:07:53;;;;;;;4.97;2.28;;;10.50;99.90;;;;;;5136093;27;20207;-59
2022/11/23 11:10:38;;;;;;;7.53;2.80;;;10.60;99.90;;;;;;5136206;27;20185;-60
2022/11/23 11:13:38;;;;;;;7.05;2.47;;;10.60;99.90;;;;;;5135682;27;20164;-59
2022/11/23 11:16:16;;;;;;;4.93;2.55;;;10.70;99.90;;;;;;5135744;27;20165;-59
2022/11/23 11:18:42;;;;;;;6.60;2.55;;;10.60;99.90;;;;;;5135805;27;20213;-59
2022/11/23 11:21:20;;;;;;;4.47;2.03;;;10.50;99.90;;;;;;5135657;27;20176;-60
2022/11/23 11:23:52;;;;;;;5.70;2.65;;;10.40;99.90;;;;;;5135652;27;20655;-59
2022/11/23 11:26:21;;;;;;;9.15;3.10;;;10.50;99.90;;;;;;5135724;27;20208;-60
2022/11/23 11:28:53;;;;;;;7.18;2.83;;;10.70;99.90;;;;;;5135617;27;20168;-60
2022/11/23 11:31:27;;;;;;;4.50;2.10;;;10.70;99.90;;;;;;5135349;27;20188;-59
2022/11/23 11:34:04;;;;;;;5.60;2.60;;;10.60;99.90;;;;;;5134256;27;20172;-60
2022/11/23 11:36:36;;;;;;;6.65;2.28;;;10.70;99.90;;;;;;5135581;27;20172;-59
2022/11/23 11:39:09;;;;;;;6.38;2.58;;;10.80;99.90;;;;;;5135410;27;20209;-60
2022/11/23 11:41:37;;;;;;;7.47;2.35;;;10.80;99.90;;;;;;5135115;27;20511;-60
2022/11/23 11:44:14;;;;;;;7.13;2.38;;;10.80;99.90;;;;;;5135506;27;20260;-59
2022/11/23 11:46:46;;;;;;;5.15;2.55;;;10.90;99.90;;;;;;5116881;27;20536;-60
2022/11/23 11:49:20;;;;;;;5.95;2.20;;;11.00;99.90;;;;;;5135227;27;20180;-60
2022/11/23 11:51:58;;;;;;;8.65;2.67;;;11.10;99.90;;;;;;5135429;27;20180;-60
2022/11/23 11:54:28;;;;;;;4.35;2.40;;;11.30;99.90;;;;;;5116074;27;20195;-60
2022/11/23 11:57:00;;;;;;;7.72;2.88;;;11.40;99.90;;;;;;5134884;27;20176;-60
2022/11/23 11:59:52;;;;;;;5.63;2.30;;;11.40;99.90;;;;;;5135078;27;20533;-60
2022/11/23 12:02:32;;;;;;;7.82;3.28;;;11.20;99.90;;;;;;5134713;27;20518;-59
2022/11/23 12:05:22;;;;;;;10.50;2.90;;;11.20;99.90;;;;;;5135103;27;20653;-59
2022/11/23 12:07:54;;;;;;;8.32;2.70;;;11.20;99.90;;;;;;5134772;27;20208;-60
2022/11/23 12:10:37;;;;;;;6.20;2.38;;;11.10;99.90;;;;;;5134781;27;20183;-59
2022/11/23 12:13:03;;;;;;;5.10;2.55;;;11.10;99.90;;;;;;5134743;27;20169;-59
2022/11/23 12:15:39;;;;;;;4.82;1.95;;;11.10;99.90;;;;;;5134504;27;20173;-59
2022/11/23 12:18:29;;;;;;;8.15;2.38;;;11.20;99.90;;;;;;5134798;27;20172;-59
2022/11/23 12:21:04;;;;;;;7.30;3.00;;;11.10;99.90;;;;;;5134683;27;20164;-59
2022/11/23 12:23:44;;;;;;;7.10;3.13;;;11.10;99.90;;;;;;5134658;27;20254;-59
2022/11/23 12:26:23;;;;;;;8.55;3.60;;;11.10;99.90;;;;;;5134348;27;20168;-61
2022/11/23 12:29:09;;;;;;;11.30;3.40;;;10.90;99.90;;;;;;5134813;27;20517;-60
2022/11/23 12:32:04;;;;;;;9.77;3.00;;;10.80;99.90;;;;;;5134410;27;20203;-60
2022/11/23 12:34:49;;;;;;;8.05;2.60;;;10.70;99.90;;;;;;5111867;27;20196;-61
2022/11/23 12:37:35;;;;;;;7.28;2.28;;;10.60;99.90;;;;;;5134445;27;20172;-61
2022/11/23 12:40:25;;;;;;;5.03;2.00;;;10.60;99.90;;;;;;5134348;27;20491;-60
2022/11/23 12:43:10;;;;;;;6.78;2.40;;;10.50;99.90;;;;;;5134042;27;20577;-60
2022/11/23 12:45:47;;;;;;;7.32;2.22;;;10.40;99.90;;;;;;5134017;27;20173;-60
2022/11/23 12:48:14;;;;;;;7.80;2.42;;;10.20;99.90;;;;;;5134173;27;20238;-60
2022/11/23 12:50:58;;;;;;;6.47;2.20;;;10.30;99.90;;;;;;5134134;28;20168;-61
2022/11/23 12:53:49;;;;;;;9.80;2.60;;;10.30;99.90;;;;;;5134398;28;20175;-60
2022/11/23 12:56:24;;;;;;;5.78;2.38;;;10.30;99.90;;;;;;5134234;28;20161;-61